sensor_id;sensor_type;location;lat;lon;timestamp;P1;durP1;ratioP1;P2;durP2;ratioP2
8413;SDS011;4244;48.684;9.028;2023-04-24T00:00:16;2.73;;;1.70;;
8413;SDS011;4244;48.684;9.028;2023-04-24T00:02:42;1.73;;;1.10;;
8413;SDS011;4244;48.684;9.028;2023-04-24T00:05:12;1.50;;;1.17;;
8413;SDS011;4244;48.684;9.028;2023-04-24T00:07:38;2.77;;;1.43;;
8413;SDS011;4244;48.684;9.028;2023-04-24T00:10:05;1.83;;;1.10;;
8413;SDS011;4244;48.684;9.028;2023-04-24T00:12:31;2.63;;;1.40;;
8413;SDS011;4244;48.684;9.028;2023-04-24T00:14:57;1.37;;;1.20;;
8413;SDS011;4244;48.684;9.028;2023-04-24T00:17:22;1.80;;;1.17;;
8413;SDS011;4244;48.684;9.028;2023-04-24T00:19:48;2.10;;;1.30;;
8413;SDS011;4244;48.684;9.028;2023-04-24T00:22:16;1.60;;;1.03;;
8413;SDS011;4244;48.684;9.028;2023-04-24T00:24:42;1.17;;;1.03;;
8413;SDS011;4244;48.684;9.028;2023-04-24T00:27:08;2.43;;;1.27;;
8413;SDS011;4244;48.684;9.028;2023-04-24T00:29:33;3.23;;;1.30;;
8413;SDS011;4244;48.684;9.028;2023-04-24T00:31:59;2.30;;;1.17;;
8413;SDS011;4244;48.684;9.028;2023-04-24T00:34:24;1.97;;;0.93;;
8413;SDS011;4244;48.684;9.028;2023-04-24T00:36:50;4.90;;;1.40;;
8413;SDS011;4244;48.684;9.028;2023-04-24T00:39:18;1.80;;;1.20;;
8413;SDS011;4244;48.684;9.028;2023-04-24T00:41:44;2.00;;;1.20;;
8413;SDS011;4244;48.684;9.028;2023-04-24T00:44:10;1.80;;;0.70;;
8413;SDS011;4244;48.684;9.028;2023-04-24T00:46:36;2.10;;;1.20;;
8413;SDS011;4244;48.684;9.028;2023-04-24T00:49:01;2.40;;;1.00;;
8413;SDS011;4244;48.684;9.028;2023-04-24T00:51:27;1.30;;;1.10;;
8413;SDS011;4244;48.684;9.028;2023-04-24T00:53:53;1.70;;;1.10;;
8413;SDS011;4244;48.684;9.028;2023-04-24T00:56:18;1.90;;;1.00;;
8413;SDS011;4244;48.684;9.028;2023-04-24T00:58:44;1.77;;;1.10;;
8413;SDS011;4244;48.684;9.028;2023-04-24T01:01:10;2.03;;;1.10;;
8413;SDS011;4244;48.684;9.028;2023-04-24T01:03:36;1.50;;;0.90;;
8413;SDS011;4244;48.684;9.028;2023-04-24T01:06:03;2.23;;;0.87;;
8413;SDS011;4244;48.684;9.028;2023-04-24T01:08:29;2.47;;;1.10;;
8413;SDS011;4244;48.684;9.028;2023-04-24T01:10:55;2.80;;;1.20;;
8413;SDS011;4244;48.684;9.028;2023-04-24T01:13:22;1.30;;;0.90;;
8413;SDS011;4244;48.684;9.028;2023-04-24T01:15:48;2.20;;;0.90;;
8413;SDS011;4244;48.684;9.028;2023-04-24T01:18:13;1.87;;;1.20;;
8413;SDS011;4244;48.684;9.028;2023-04-24T01:20:40;1.33;;;0.83;;
8413;SDS011;4244;48.684;9.028;2023-04-24T01:26:29;1.83;;;1.10;;
8413;SDS011;4244;48.684;9.028;2023-04-24T01:28:54;2.20;;;1.10;;
8413;SDS011;4244;48.684;9.028;2023-04-24T01:31:20;3.00;;;1.17;;
8413;SDS011;4244;48.684;9.028;2023-04-24T01:33:46;1.87;;;1.00;;
8413;SDS011;4244;48.684;9.028;2023-04-24T01:36:12;1.93;;;1.47;;
8413;SDS011;4244;48.684;9.028;2023-04-24T01:38:39;1.20;;;1.00;;
8413;SDS011;4244;48.684;9.028;2023-04-24T01:41:04;3.23;;;1.10;;
8413;SDS011;4244;48.684;9.028;2023-04-24T01:43:30;1.60;;;1.20;;
8413;SDS011;4244;48.684;9.028;2023-04-24T01:45:56;3.43;;;1.20;;
8413;SDS011;4244;48.684;9.028;2023-04-24T01:48:21;2.70;;;1.30;;
8413;SDS011;4244;48.684;9.028;2023-04-24T01:50:47;3.33;;;1.10;;
8413;SDS011;4244;48.684;9.028;2023-04-24T01:53:13;1.43;;;1.17;;
8413;SDS011;4244;48.684;9.028;2023-04-24T01:55:38;2.60;;;1.30;;
8413;SDS011;4244;48.684;9.028;2023-04-24T01:58:04;2.10;;;1.30;;
8413;SDS011;4244;48.684;9.028;2023-04-24T02:00:30;1.50;;;1.10;;
8413;SDS011;4244;48.684;9.028;2023-04-24T02:02:55;2.43;;;1.40;;
8413;SDS011;4244;48.684;9.028;2023-04-24T02:05:21;2.60;;;0.97;;
8413;SDS011;4244;48.684;9.028;2023-04-24T02:07:46;5.00;;;1.13;;
8413;SDS011;4244;48.684;9.028;2023-04-24T02:10:12;12.57;;;1.87;;
8413;SDS011;4244;48.684;9.028;2023-04-24T02:12:37;3.57;;;1.30;;
8413;SDS011;4244;48.684;9.028;2023-04-24T02:15:03;2.80;;;1.20;;
8413;SDS011;4244;48.684;9.028;2023-04-24T02:17:29;1.77;;;1.20;;
8413;SDS011;4244;48.684;9.028;2023-04-24T02:19:55;2.30;;;1.37;;
8413;SDS011;4244;48.684;9.028;2023-04-24T02:22:21;1.53;;;1.00;;
8413;SDS011;4244;48.684;9.028;2023-04-24T02:24:46;2.60;;;1.30;;
8413;SDS011;4244;48.684;9.028;2023-04-24T02:27:12;3.00;;;1.43;;
8413;SDS011;4244;48.684;9.028;2023-04-24T02:29:38;1.77;;;1.17;;
8413;SDS011;4244;48.684;9.028;2023-04-24T02:32:03;2.93;;;1.33;;
8413;SDS011;4244;48.684;9.028;2023-04-24T02:34:29;3.00;;;1.30;;
8413;SDS011;4244;48.684;9.028;2023-04-24T02:36:55;2.07;;;1.20;;
8413;SDS011;4244;48.684;9.028;2023-04-24T02:39:20;2.03;;;1.40;;
8413;SDS011;4244;48.684;9.028;2023-04-24T02:41:46;2.90;;;1.30;;
8413;SDS011;4244;48.684;9.028;2023-04-24T02:44:12;2.13;;;1.00;;
8413;SDS011;4244;48.684;9.028;2023-04-24T02:46:37;4.03;;;1.23;;
8413;SDS011;4244;48.684;9.028;2023-04-24T02:49:03;2.10;;;1.20;;
8413;SDS011;4244;48.684;9.028;2023-04-24T02:51:29;1.70;;;1.37;;
8413;SDS011;4244;48.684;9.028;2023-04-24T02:53:54;1.70;;;1.07;;
8413;SDS011;4244;48.684;9.028;2023-04-24T02:56:20;2.80;;;1.30;;
8413;SDS011;4244;48.684;9.028;2023-04-24T02:58:46;2.60;;;1.13;;
8413;SDS011;4244;48.684;9.028;2023-04-24T03:01:11;3.60;;;0.97;;
8413;SDS011;4244;48.684;9.028;2023-04-24T03:03:37;2.90;;;1.60;;
8413;SDS011;4244;48.684;9.028;2023-04-24T03:06:03;1.70;;;1.20;;
8413;SDS011;4244;48.684;9.028;2023-04-24T03:08:30;1.80;;;1.40;;
8413;SDS011;4244;48.684;9.028;2023-04-24T03:10:56;1.57;;;1.03;;
8413;SDS011;4244;48.684;9.028;2023-04-24T03:13:22;1.90;;;0.97;;
8413;SDS011;4244;48.684;9.028;2023-04-24T03:15:48;1.33;;;0.97;;
8413;SDS011;4244;48.684;9.028;2023-04-24T03:18:13;1.47;;;1.23;;
8413;SDS011;4244;48.684;9.028;2023-04-24T03:20:39;1.40;;;1.10;;
8413;SDS011;4244;48.684;9.028;2023-04-24T03:23:04;2.73;;;1.27;;
8413;SDS011;4244;48.684;9.028;2023-04-24T03:25:30;5.73;;;2.23;;
8413;SDS011;4244;48.684;9.028;2023-04-24T03:27:56;1.80;;;1.27;;
8413;SDS011;4244;48.684;9.028;2023-04-24T03:30:21;1.50;;;1.23;;
8413;SDS011;4244;48.684;9.028;2023-04-24T03:32:47;3.37;;;1.10;;
8413;SDS011;4244;48.684;9.028;2023-04-24T03:35:13;1.10;;;0.77;;
8413;SDS011;4244;48.684;9.028;2023-04-24T03:37:38;1.90;;;1.40;;
8413;SDS011;4244;48.684;9.028;2023-04-24T03:40:04;1.77;;;0.90;;
8413;SDS011;4244;48.684;9.028;2023-04-24T03:42:31;2.27;;;1.03;;
8413;SDS011;4244;48.684;9.028;2023-04-24T03:44:56;4.03;;;1.27;;
8413;SDS011;4244;48.684;9.028;2023-04-24T03:47:22;2.03;;;0.90;;
8413;SDS011;4244;48.684;9.028;2023-04-24T03:49:47;2.93;;;1.30;;
8413;SDS011;4244;48.684;9.028;2023-04-24T03:52:13;4.10;;;1.23;;
8413;SDS011;4244;48.684;9.028;2023-04-24T03:54:38;1.77;;;1.30;;
8413;SDS011;4244;48.684;9.028;2023-04-24T03:57:04;1.50;;;1.07;;
8413;SDS011;4244;48.684;9.028;2023-04-24T03:59:30;3.40;;;1.33;;
8413;SDS011;4244;48.684;9.028;2023-04-24T04:01:55;1.93;;;1.07;;
8413;SDS011;4244;48.684;9.028;2023-04-24T04:04:21;2.40;;;1.10;;
8413;SDS011;4244;48.684;9.028;2023-04-24T04:06:47;1.70;;;0.90;;
8413;SDS011;4244;48.684;9.028;2023-04-24T04:09:12;1.00;;;0.87;;
8413;SDS011;4244;48.684;9.028;2023-04-24T04:11:38;1.40;;;1.07;;
8413;SDS011;4244;48.684;9.028;2023-04-24T04:14:04;1.30;;;1.10;;
8413;SDS011;4244;48.684;9.028;2023-04-24T04:16:30;1.47;;;0.80;;
8413;SDS011;4244;48.684;9.028;2023-04-24T04:18:56;1.47;;;1.03;;
8413;SDS011;4244;48.684;9.028;2023-04-24T04:21:21;2.50;;;1.10;;
8413;SDS011;4244;48.684;9.028;2023-04-24T04:23:47;1.90;;;1.00;;
8413;SDS011;4244;48.684;9.028;2023-04-24T04:26:13;2.17;;;0.80;;
8413;SDS011;4244;48.684;9.028;2023-04-24T04:28:39;2.20;;;0.93;;
8413;SDS011;4244;48.684;9.028;2023-04-24T04:31:05;4.40;;;2.00;;
8413;SDS011;4244;48.684;9.028;2023-04-24T04:33:32;4.30;;;1.30;;
8413;SDS011;4244;48.684;9.028;2023-04-24T04:35:58;3.83;;;2.00;;
8413;SDS011;4244;48.684;9.028;2023-04-24T04:38:25;2.00;;;1.67;;
8413;SDS011;4244;48.684;9.028;2023-04-24T04:40:51;1.67;;;1.57;;
8413;SDS011;4244;48.684;9.028;2023-04-24T04:43:17;4.83;;;1.90;;
8413;SDS011;4244;48.684;9.028;2023-04-24T04:45:42;2.57;;;1.90;;
8413;SDS011;4244;48.684;9.028;2023-04-24T04:48:08;2.40;;;2.03;;
8413;SDS011;4244;48.684;9.028;2023-04-24T04:50:37;2.37;;;2.13;;
8413;SDS011;4244;48.684;9.028;2023-04-24T04:53:02;1.83;;;1.70;;
8413;SDS011;4244;48.684;9.028;2023-04-24T04:55:28;2.27;;;1.67;;
8413;SDS011;4244;48.684;9.028;2023-04-24T04:57:54;3.63;;;2.23;;
8413;SDS011;4244;48.684;9.028;2023-04-24T05:00:21;2.13;;;1.70;;
8413;SDS011;4244;48.684;9.028;2023-04-24T05:02:49;3.57;;;2.30;;
8413;SDS011;4244;48.684;9.028;2023-04-24T05:05:14;2.00;;;1.90;;
8413;SDS011;4244;48.684;9.028;2023-04-24T05:07:41;2.33;;;1.70;;
8413;SDS011;4244;48.684;9.028;2023-04-24T05:10:07;2.70;;;2.27;;
8413;SDS011;4244;48.684;9.028;2023-04-24T05:12:33;2.90;;;1.80;;
8413;SDS011;4244;48.684;9.028;2023-04-24T05:14:59;2.83;;;2.50;;
8413;SDS011;4244;48.684;9.028;2023-04-24T05:17:24;5.60;;;2.33;;
8413;SDS011;4244;48.684;9.028;2023-04-24T05:19:50;3.50;;;3.00;;
8413;SDS011;4244;48.684;9.028;2023-04-24T05:22:16;2.90;;;2.60;;
8413;SDS011;4244;48.684;9.028;2023-04-24T05:24:43;2.80;;;2.13;;
8413;SDS011;4244;48.684;9.028;2023-04-24T05:27:09;5.03;;;4.40;;
8413;SDS011;4244;48.684;9.028;2023-04-24T05:29:35;4.10;;;1.87;;
8413;SDS011;4244;48.684;9.028;2023-04-24T05:32:01;4.53;;;2.10;;
8413;SDS011;4244;48.684;9.028;2023-04-24T05:34:26;2.50;;;2.30;;
8413;SDS011;4244;48.684;9.028;2023-04-24T05:36:52;2.80;;;2.50;;
8413;SDS011;4244;48.684;9.028;2023-04-24T05:39:18;6.03;;;2.93;;
8413;SDS011;4244;48.684;9.028;2023-04-24T05:41:44;2.87;;;2.23;;
8413;SDS011;4244;48.684;9.028;2023-04-24T05:44:10;3.37;;;2.50;;
8413;SDS011;4244;48.684;9.028;2023-04-24T05:46:36;2.87;;;2.40;;
8413;SDS011;4244;48.684;9.028;2023-04-24T05:49:01;3.70;;;2.53;;
8413;SDS011;4244;48.684;9.028;2023-04-24T05:51:27;3.00;;;2.70;;
8413;SDS011;4244;48.684;9.028;2023-04-24T05:53:53;3.60;;;2.80;;
8413;SDS011;4244;48.684;9.028;2023-04-24T05:56:19;3.90;;;2.60;;
8413;SDS011;4244;48.684;9.028;2023-04-24T05:58:45;2.87;;;2.57;;
8413;SDS011;4244;48.684;9.028;2023-04-24T06:01:11;4.97;;;4.27;;
8413;SDS011;4244;48.684;9.028;2023-04-24T06:03:38;3.20;;;2.70;;
8413;SDS011;4244;48.684;9.028;2023-04-24T06:06:06;4.63;;;2.90;;
8413;SDS011;4244;48.684;9.028;2023-04-24T06:08:32;3.60;;;3.17;;
8413;SDS011;4244;48.684;9.028;2023-04-24T06:10:58;3.13;;;2.90;;
8413;SDS011;4244;48.684;9.028;2023-04-24T06:13:24;4.00;;;3.60;;
8413;SDS011;4244;48.684;9.028;2023-04-24T06:15:50;2.90;;;2.60;;
8413;SDS011;4244;48.684;9.028;2023-04-24T06:18:16;3.40;;;2.83;;
8413;SDS011;4244;48.684;9.028;2023-04-24T06:20:42;3.30;;;3.00;;
8413;SDS011;4244;48.684;9.028;2023-04-24T06:23:07;4.27;;;3.10;;
8413;SDS011;4244;48.684;9.028;2023-04-24T06:25:33;4.83;;;2.47;;
8413;SDS011;4244;48.684;9.028;2023-04-24T06:27:58;4.53;;;2.40;;
8413;SDS011;4244;48.684;9.028;2023-04-24T06:30:24;2.00;;;1.80;;
8413;SDS011;4244;48.684;9.028;2023-04-24T06:32:50;2.50;;;2.23;;
8413;SDS011;4244;48.684;9.028;2023-04-24T06:35:16;3.10;;;2.13;;
8413;SDS011;4244;48.684;9.028;2023-04-24T06:37:42;3.30;;;2.80;;
8413;SDS011;4244;48.684;9.028;2023-04-24T06:40:08;2.47;;;2.23;;
8413;SDS011;4244;48.684;9.028;2023-04-24T06:42:35;3.27;;;2.40;;
8413;SDS011;4244;48.684;9.028;2023-04-24T06:45:00;3.10;;;2.80;;
8413;SDS011;4244;48.684;9.028;2023-04-24T06:47:26;3.00;;;2.70;;
8413;SDS011;4244;48.684;9.028;2023-04-24T06:49:52;3.10;;;2.33;;
8413;SDS011;4244;48.684;9.028;2023-04-24T06:52:18;2.70;;;2.50;;
8413;SDS011;4244;48.684;9.028;2023-04-24T06:54:44;2.80;;;2.60;;
8413;SDS011;4244;48.684;9.028;2023-04-24T06:57:10;3.67;;;2.57;;
8413;SDS011;4244;48.684;9.028;2023-04-24T06:59:36;2.40;;;2.20;;
8413;SDS011;4244;48.684;9.028;2023-04-24T07:02:02;2.57;;;2.37;;
8413;SDS011;4244;48.684;9.028;2023-04-24T07:04:28;2.37;;;2.17;;
8413;SDS011;4244;48.684;9.028;2023-04-24T07:06:54;2.77;;;2.40;;
8413;SDS011;4244;48.684;9.028;2023-04-24T07:09:21;3.70;;;3.20;;
8413;SDS011;4244;48.684;9.028;2023-04-24T07:11:48;3.30;;;2.10;;
8413;SDS011;4244;48.684;9.028;2023-04-24T07:14:14;2.37;;;2.03;;
8413;SDS011;4244;48.684;9.028;2023-04-24T07:16:40;1.93;;;1.67;;
8413;SDS011;4244;48.684;9.028;2023-04-24T07:19:05;1.97;;;1.70;;
8413;SDS011;4244;48.684;9.028;2023-04-24T07:21:31;1.87;;;1.73;;
8413;SDS011;4244;48.684;9.028;2023-04-24T07:23:57;2.33;;;1.33;;
8413;SDS011;4244;48.684;9.028;2023-04-24T07:26:23;2.30;;;2.10;;
8413;SDS011;4244;48.684;9.028;2023-04-24T07:28:49;1.90;;;1.70;;
8413;SDS011;4244;48.684;9.028;2023-04-24T07:31:14;2.37;;;1.67;;
8413;SDS011;4244;48.684;9.028;2023-04-24T07:33:40;1.83;;;1.63;;
8413;SDS011;4244;48.684;9.028;2023-04-24T07:36:06;2.53;;;1.70;;
8413;SDS011;4244;48.684;9.028;2023-04-24T07:38:32;2.33;;;1.77;;
8413;SDS011;4244;48.684;9.028;2023-04-24T07:40:57;1.73;;;1.60;;
8413;SDS011;4244;48.684;9.028;2023-04-24T07:43:23;2.63;;;1.70;;
8413;SDS011;4244;48.684;9.028;2023-04-24T07:45:52;2.23;;;1.87;;
8413;SDS011;4244;48.684;9.028;2023-04-24T07:48:17;2.37;;;1.50;;
8413;SDS011;4244;48.684;9.028;2023-04-24T07:50:43;2.53;;;1.77;;
8413;SDS011;4244;48.684;9.028;2023-04-24T07:53:10;1.57;;;1.37;;
8413;SDS011;4244;48.684;9.028;2023-04-24T07:55:36;2.43;;;1.93;;
8413;SDS011;4244;48.684;9.028;2023-04-24T07:58:02;1.90;;;1.60;;
8413;SDS011;4244;48.684;9.028;2023-04-24T08:00:28;3.37;;;2.50;;
8413;SDS011;4244;48.684;9.028;2023-04-24T08:02:53;2.90;;;1.80;;
8413;SDS011;4244;48.684;9.028;2023-04-24T08:05:19;2.40;;;1.67;;
8413;SDS011;4244;48.684;9.028;2023-04-24T08:07:45;2.70;;;1.90;;
8413;SDS011;4244;48.684;9.028;2023-04-24T08:10:13;3.90;;;2.50;;
8413;SDS011;4244;48.684;9.028;2023-04-24T08:12:39;2.10;;;1.90;;
8413;SDS011;4244;48.684;9.028;2023-04-24T08:15:05;2.60;;;2.40;;
8413;SDS011;4244;48.684;9.028;2023-04-24T08:17:31;2.43;;;2.10;;
8413;SDS011;4244;48.684;9.028;2023-04-24T08:19:57;3.37;;;1.70;;
8413;SDS011;4244;48.684;9.028;2023-04-24T08:22:26;2.60;;;1.83;;
8413;SDS011;4244;48.684;9.028;2023-04-24T08:24:52;3.03;;;2.17;;
8413;SDS011;4244;48.684;9.028;2023-04-24T08:27:18;3.30;;;2.50;;
8413;SDS011;4244;48.684;9.028;2023-04-24T08:29:44;2.37;;;2.17;;
8413;SDS011;4244;48.684;9.028;2023-04-24T08:32:09;2.20;;;1.90;;
8413;SDS011;4244;48.684;9.028;2023-04-24T08:34:35;2.00;;;1.70;;
8413;SDS011;4244;48.684;9.028;2023-04-24T08:37:01;2.80;;;2.03;;
8413;SDS011;4244;48.684;9.028;2023-04-24T08:39:27;2.23;;;1.80;;
8413;SDS011;4244;48.684;9.028;2023-04-24T08:41:55;3.20;;;2.37;;
8413;SDS011;4244;48.684;9.028;2023-04-24T08:44:21;2.80;;;1.93;;
8413;SDS011;4244;48.684;9.028;2023-04-24T08:46:50;3.10;;;2.43;;
8413;SDS011;4244;48.684;9.028;2023-04-24T08:49:17;2.33;;;1.80;;
8413;SDS011;4244;48.684;9.028;2023-04-24T08:51:43;3.63;;;2.20;;
8413;SDS011;4244;48.684;9.028;2023-04-24T08:54:09;3.90;;;2.43;;
8413;SDS011;4244;48.684;9.028;2023-04-24T08:56:36;2.13;;;1.90;;
8413;SDS011;4244;48.684;9.028;2023-04-24T08:59:06;2.50;;;2.27;;
8413;SDS011;4244;48.684;9.028;2023-04-24T09:01:35;2.20;;;1.90;;
8413;SDS011;4244;48.684;9.028;2023-04-24T09:04:04;2.40;;;2.20;;
8413;SDS011;4244;48.684;9.028;2023-04-24T09:06:32;2.63;;;2.27;;
8413;SDS011;4244;48.684;9.028;2023-04-24T09:09:01;2.30;;;1.90;;
8413;SDS011;4244;48.684;9.028;2023-04-24T09:11:29;2.50;;;2.07;;
8413;SDS011;4244;48.684;9.028;2023-04-24T09:13:58;2.50;;;2.03;;
8413;SDS011;4244;48.684;9.028;2023-04-24T09:16:24;2.23;;;2.03;;
8413;SDS011;4244;48.684;9.028;2023-04-24T09:18:51;5.00;;;2.23;;
8413;SDS011;4244;48.684;9.028;2023-04-24T09:21:16;2.73;;;2.27;;
8413;SDS011;4244;48.684;9.028;2023-04-24T09:23:42;3.33;;;2.10;;
8413;SDS011;4244;48.684;9.028;2023-04-24T09:26:08;2.10;;;1.43;;
8413;SDS011;4244;48.684;9.028;2023-04-24T09:28:36;2.10;;;1.60;;
8413;SDS011;4244;48.684;9.028;2023-04-24T09:31:13;2.13;;;1.90;;
8413;SDS011;4244;48.684;9.028;2023-04-24T09:33:58;3.10;;;1.63;;
8413;SDS011;4244;48.684;9.028;2023-04-24T09:38:58;1.43;;;1.27;;
8413;SDS011;4244;48.684;9.028;2023-04-24T09:41:24;1.97;;;1.13;;
8413;SDS011;4244;48.684;9.028;2023-04-24T09:43:51;1.70;;;1.13;;
8413;SDS011;4244;48.684;9.028;2023-04-24T09:46:18;1.60;;;1.20;;
8413;SDS011;4244;48.684;9.028;2023-04-24T09:48:46;1.40;;;1.30;;
8413;SDS011;4244;48.684;9.028;2023-04-24T09:51:11;1.50;;;1.40;;
8413;SDS011;4244;48.684;9.028;2023-04-24T09:53:37;1.77;;;1.27;;
8413;SDS011;4244;48.684;9.028;2023-04-24T09:56:06;1.57;;;1.43;;
8413;SDS011;4244;48.684;9.028;2023-04-24T09:58:37;5.00;;;1.60;;
8413;SDS011;4244;48.684;9.028;2023-04-24T10:01:03;1.70;;;1.43;;
8413;SDS011;4244;48.684;9.028;2023-04-24T10:03:32;3.00;;;1.67;;
8413;SDS011;4244;48.684;9.028;2023-04-24T10:05:59;2.30;;;1.63;;
8413;SDS011;4244;48.684;9.028;2023-04-24T10:08:26;1.40;;;1.30;;
8413;SDS011;4244;48.684;9.028;2023-04-24T10:10:51;4.50;;;3.03;;
8413;SDS011;4244;48.684;9.028;2023-04-24T10:13:17;3.00;;;1.50;;
8413;SDS011;4244;48.684;9.028;2023-04-24T10:15:43;1.67;;;1.30;;
8413;SDS011;4244;48.684;9.028;2023-04-24T10:18:10;2.23;;;1.30;;
8413;SDS011;4244;48.684;9.028;2023-04-24T10:20:37;2.57;;;1.30;;
8413;SDS011;4244;48.684;9.028;2023-04-24T10:23:03;1.93;;;1.37;;
8413;SDS011;4244;48.684;9.028;2023-04-24T10:25:31;2.70;;;1.33;;
8413;SDS011;4244;48.684;9.028;2023-04-24T10:27:58;1.90;;;1.60;;
8413;SDS011;4244;48.684;9.028;2023-04-24T10:30:28;1.90;;;1.40;;
8413;SDS011;4244;48.684;9.028;2023-04-24T10:32:55;1.77;;;1.00;;
8413;SDS011;4244;48.684;9.028;2023-04-24T10:35:22;2.70;;;1.50;;
8413;SDS011;4244;48.684;9.028;2023-04-24T10:37:54;1.87;;;1.23;;
8413;SDS011;4244;48.684;9.028;2023-04-24T10:40:26;1.80;;;1.40;;
8413;SDS011;4244;48.684;9.028;2023-04-24T10:42:54;1.47;;;1.37;;
8413;SDS011;4244;48.684;9.028;2023-04-24T10:45:22;1.53;;;1.30;;
8413;SDS011;4244;48.684;9.028;2023-04-24T10:47:58;1.93;;;1.67;;
8413;SDS011;4244;48.684;9.028;2023-04-24T10:50:26;1.77;;;1.47;;
8413;SDS011;4244;48.684;9.028;2023-04-24T10:52:53;1.70;;;1.33;;
8413;SDS011;4244;48.684;9.028;2023-04-24T10:55:43;1.23;;;1.13;;
8413;SDS011;4244;48.684;9.028;2023-04-24T10:58:11;2.07;;;1.00;;
8413;SDS011;4244;48.684;9.028;2023-04-24T11:00:38;1.40;;;1.30;;
8413;SDS011;4244;48.684;9.028;2023-04-24T11:03:22;1.67;;;1.40;;
8413;SDS011;4244;48.684;9.028;2023-04-24T11:08:24;1.83;;;1.57;;
8413;SDS011;4244;48.684;9.028;2023-04-24T11:11:06;2.90;;;1.77;;
8413;SDS011;4244;48.684;9.028;2023-04-24T11:16:29;2.40;;;1.87;;
8413;SDS011;4244;48.684;9.028;2023-04-24T11:19:05;2.07;;;1.77;;
8413;SDS011;4244;48.684;9.028;2023-04-24T11:21:42;2.93;;;1.80;;
8413;SDS011;4244;48.684;9.028;2023-04-24T11:24:21;2.20;;;1.70;;
8413;SDS011;4244;48.684;9.028;2023-04-24T11:26:54;2.83;;;1.80;;
8413;SDS011;4244;48.684;9.028;2023-04-24T11:29:21;1.80;;;1.37;;
8413;SDS011;4244;48.684;9.028;2023-04-24T11:31:47;3.17;;;1.50;;
8413;SDS011;4244;48.684;9.028;2023-04-24T11:34:16;5.23;;;2.17;;
8413;SDS011;4244;48.684;9.028;2023-04-24T11:36:42;2.50;;;1.30;;
8413;SDS011;4244;48.684;9.028;2023-04-24T11:39:09;2.00;;;1.30;;
8413;SDS011;4244;48.684;9.028;2023-04-24T11:41:36;2.93;;;1.63;;
8413;SDS011;4244;48.684;9.028;2023-04-24T11:44:02;3.40;;;2.87;;
8413;SDS011;4244;48.684;9.028;2023-04-24T11:46:30;2.67;;;1.60;;
8413;SDS011;4244;48.684;9.028;2023-04-24T11:48:57;3.43;;;1.30;;
8413;SDS011;4244;48.684;9.028;2023-04-24T11:51:25;2.50;;;1.67;;
8413;SDS011;4244;48.684;9.028;2023-04-24T11:53:53;3.17;;;1.60;;
8413;SDS011;4244;48.684;9.028;2023-04-24T11:56:23;2.70;;;1.90;;
8413;SDS011;4244;48.684;9.028;2023-04-24T11:58:51;1.77;;;1.67;;
8413;SDS011;4244;48.684;9.028;2023-04-24T12:01:18;1.60;;;1.50;;
8413;SDS011;4244;48.684;9.028;2023-04-24T12:03:48;1.40;;;1.30;;
8413;SDS011;4244;48.684;9.028;2023-04-24T12:06:15;4.50;;;2.47;;
8413;SDS011;4244;48.684;9.028;2023-04-24T12:08:41;2.10;;;1.80;;
8413;SDS011;4244;48.684;9.028;2023-04-24T12:11:07;3.43;;;1.80;;
8413;SDS011;4244;48.684;9.028;2023-04-24T12:13:35;4.03;;;1.97;;
8413;SDS011;4244;48.684;9.028;2023-04-24T12:16:02;3.07;;;2.10;;
8413;SDS011;4244;48.684;9.028;2023-04-24T12:18:29;2.57;;;2.20;;
8413;SDS011;4244;48.684;9.028;2023-04-24T12:20:55;2.20;;;2.00;;
8413;SDS011;4244;48.684;9.028;2023-04-24T12:23:42;3.10;;;2.20;;
8413;SDS011;4244;48.684;9.028;2023-04-24T12:26:08;2.03;;;1.80;;
8413;SDS011;4244;48.684;9.028;2023-04-24T12:28:35;2.73;;;2.43;;
8413;SDS011;4244;48.684;9.028;2023-04-24T12:31:02;2.57;;;1.80;;
8413;SDS011;4244;48.684;9.028;2023-04-24T12:33:28;3.40;;;1.70;;
8413;SDS011;4244;48.684;9.028;2023-04-24T12:35:58;2.40;;;1.70;;
8413;SDS011;4244;48.684;9.028;2023-04-24T12:38:25;1.83;;;1.70;;
8413;SDS011;4244;48.684;9.028;2023-04-24T12:41:04;2.60;;;1.30;;
8413;SDS011;4244;48.684;9.028;2023-04-24T12:43:31;1.50;;;1.33;;
8413;SDS011;4244;48.684;9.028;2023-04-24T12:45:57;1.53;;;1.33;;
8413;SDS011;4244;48.684;9.028;2023-04-24T12:48:24;2.97;;;1.60;;
8413;SDS011;4244;48.684;9.028;2023-04-24T12:50:53;2.43;;;1.63;;
8413;SDS011;4244;48.684;9.028;2023-04-24T12:53:18;1.90;;;1.70;;
8413;SDS011;4244;48.684;9.028;2023-04-24T12:55:44;1.80;;;1.70;;
8413;SDS011;4244;48.684;9.028;2023-04-24T12:58:11;2.73;;;1.93;;
8413;SDS011;4244;48.684;9.028;2023-04-24T13:00:38;2.80;;;2.10;;
8413;SDS011;4244;48.684;9.028;2023-04-24T13:03:04;2.33;;;2.13;;
8413;SDS011;4244;48.684;9.028;2023-04-24T13:05:29;3.10;;;2.00;;
8413;SDS011;4244;48.684;9.028;2023-04-24T13:07:56;2.20;;;2.00;;
8413;SDS011;4244;48.684;9.028;2023-04-24T13:10:22;2.70;;;2.10;;
8413;SDS011;4244;48.684;9.028;2023-04-24T13:12:48;2.23;;;1.97;;
8413;SDS011;4244;48.684;9.028;2023-04-24T13:15:13;2.53;;;2.13;;
8413;SDS011;4244;48.684;9.028;2023-04-24T13:17:39;3.20;;;2.43;;
8413;SDS011;4244;48.684;9.028;2023-04-24T13:20:05;2.17;;;1.97;;
8413;SDS011;4244;48.684;9.028;2023-04-24T13:22:31;2.40;;;2.10;;
8413;SDS011;4244;48.684;9.028;2023-04-24T13:24:57;2.30;;;1.90;;
8413;SDS011;4244;48.684;9.028;2023-04-24T13:27:22;2.50;;;2.07;;
8413;SDS011;4244;48.684;9.028;2023-04-24T13:29:48;2.30;;;2.10;;
8413;SDS011;4244;48.684;9.028;2023-04-24T13:32:13;2.43;;;2.10;;
8413;SDS011;4244;48.684;9.028;2023-04-24T13:34:39;2.43;;;2.23;;
8413;SDS011;4244;48.684;9.028;2023-04-24T13:37:05;2.80;;;2.07;;
8413;SDS011;4244;48.684;9.028;2023-04-24T13:39:30;2.83;;;2.20;;
8413;SDS011;4244;48.684;9.028;2023-04-24T13:41:57;5.00;;;2.50;;
8413;SDS011;4244;48.684;9.028;2023-04-24T13:44:23;2.57;;;2.20;;
8413;SDS011;4244;48.684;9.028;2023-04-24T13:46:50;5.60;;;2.90;;
8413;SDS011;4244;48.684;9.028;2023-04-24T13:49:18;4.50;;;2.60;;
8413;SDS011;4244;48.684;9.028;2023-04-24T13:51:45;3.20;;;2.83;;
8413;SDS011;4244;48.684;9.028;2023-04-24T13:54:11;3.83;;;2.73;;
8413;SDS011;4244;48.684;9.028;2023-04-24T13:56:36;2.73;;;2.40;;
8413;SDS011;4244;48.684;9.028;2023-04-24T13:59:02;3.20;;;2.73;;
8413;SDS011;4244;48.684;9.028;2023-04-24T14:01:27;3.27;;;2.20;;
8413;SDS011;4244;48.684;9.028;2023-04-24T14:03:54;4.23;;;2.47;;
8413;SDS011;4244;48.684;9.028;2023-04-24T14:06:20;2.90;;;2.27;;
8413;SDS011;4244;48.684;9.028;2023-04-24T14:08:47;4.43;;;2.30;;
8413;SDS011;4244;48.684;9.028;2023-04-24T14:11:13;4.57;;;2.80;;
8413;SDS011;4244;48.684;9.028;2023-04-24T14:13:38;2.50;;;2.30;;
8413;SDS011;4244;48.684;9.028;2023-04-24T14:16:08;3.70;;;2.80;;
8413;SDS011;4244;48.684;9.028;2023-04-24T14:18:35;3.20;;;2.77;;
8413;SDS011;4244;48.684;9.028;2023-04-24T14:21:01;3.80;;;3.37;;
8413;SDS011;4244;48.684;9.028;2023-04-24T14:23:27;2.60;;;2.40;;
8413;SDS011;4244;48.684;9.028;2023-04-24T14:25:53;3.87;;;3.10;;
8413;SDS011;4244;48.684;9.028;2023-04-24T14:28:19;4.67;;;2.73;;
8413;SDS011;4244;48.684;9.028;2023-04-24T14:30:45;3.33;;;3.00;;
8413;SDS011;4244;48.684;9.028;2023-04-24T14:33:11;3.50;;;3.20;;
8413;SDS011;4244;48.684;9.028;2023-04-24T14:35:37;4.30;;;3.37;;
8413;SDS011;4244;48.684;9.028;2023-04-24T14:38:04;4.10;;;3.10;;
8413;SDS011;4244;48.684;9.028;2023-04-24T14:40:30;3.93;;;3.53;;
8413;SDS011;4244;48.684;9.028;2023-04-24T14:42:57;2.77;;;2.57;;
8413;SDS011;4244;48.684;9.028;2023-04-24T14:45:23;5.20;;;2.77;;
8413;SDS011;4244;48.684;9.028;2023-04-24T14:47:49;4.00;;;3.57;;
8413;SDS011;4244;48.684;9.028;2023-04-24T14:50:15;2.83;;;2.60;;
8413;SDS011;4244;48.684;9.028;2023-04-24T14:52:40;5.80;;;3.27;;
8413;SDS011;4244;48.684;9.028;2023-04-24T14:55:06;4.53;;;2.97;;
8413;SDS011;4244;48.684;9.028;2023-04-24T14:57:32;2.93;;;2.20;;
8413;SDS011;4244;48.684;9.028;2023-04-24T14:59:58;3.37;;;2.53;;
8413;SDS011;4244;48.684;9.028;2023-04-24T15:02:24;1.83;;;1.73;;
8413;SDS011;4244;48.684;9.028;2023-04-24T15:04:50;2.97;;;1.77;;
8413;SDS011;4244;48.684;9.028;2023-04-24T15:07:15;2.70;;;2.03;;
8413;SDS011;4244;48.684;9.028;2023-04-24T15:09:41;3.73;;;2.00;;
8413;SDS011;4244;48.684;9.028;2023-04-24T15:12:07;5.20;;;2.40;;
8413;SDS011;4244;48.684;9.028;2023-04-24T15:14:33;2.30;;;1.93;;
8413;SDS011;4244;48.684;9.028;2023-04-24T15:16:59;2.63;;;2.33;;
8413;SDS011;4244;48.684;9.028;2023-04-24T15:19:24;2.87;;;2.30;;
8413;SDS011;4244;48.684;9.028;2023-04-24T15:21:50;1.90;;;1.60;;